Time;durP1;ratioP1;P1;durP2;ratioP2;P2;SDS_P1;SDS_P2;PMS_P1;PMS_P2;Temp;Humidity;BMP_temperature;BMP_pressure;BME280_temperature;BME280_humidity;BME280_pressure;Samples;Min_cycle;Max_cycle;Signal;HPM_P1;HPM_P2
2024/01/23 01:41:49;;;;;;;15.35;3.72;;;5.90;99.90;;;;;;5784524;24;20030;31
2024/01/23 02:03:39;;;;;;;12.52;4.07;;;5.80;99.90;;;;;;5319425;24;20031;-96
2024/01/23 02:09:53;;;;;;;17.42;5.20;;;5.70;99.90;;;;;;5652355;24;20042;31
2024/01/23 02:12:23;;;;;;;13.98;4.15;;;6.20;99.90;;;;;;4919545;24;20031;-95
2024/01/23 02:15:31;;;;;;;17.63;4.95;;;5.70;99.90;;;;;;4963871;24;21087;-96
2024/01/23 02:18:07;;;;;;;18.15;3.90;;;6.50;99.90;;;;;;5170255;24;20038;-95
2024/01/23 02:24:19;;;;;;;18.25;4.00;;;5.60;99.90;;;;;;5130841;24;20060;-96
2024/01/23 02:32:33;;;;;;;22.20;4.72;;;6.40;99.90;;;;;;4785360;29;20071;-96
2024/01/23 02:35:10;;;;;;;17.45;4.57;;;5.60;99.90;;;;;;4765233;29;20055;-96
2024/01/23 02:58:18;;;;;;;15.25;4.43;;;4.80;99.90;;;;;;4801898;29;20141;-96
2024/01/23 03:04:05;;;;;;;17.35;4.43;;;5.60;99.90;;;;;;5580147;24;20066;-96
2024/01/23 03:07:01;;;;;;;12.90;4.95;;;4.90;99.90;;;;;;4780512;30;20155;-96
2024/01/23 03:09:52;;;;;;;;;;;;;;;;;;;;;
2024/01/23 03:12:47;;;;;;;;;;;;;;;;;;;;;
2024/01/23 03:15:41;;;;;;;17.60;4.97;;;5.60;99.90;;;;;;4778949;29;20058;-96
2024/01/23 03:24:10;;;;;;;14.13;4.95;;;5.00;99.90;;;;;;5291249;24;20029;31
2024/01/23 03:27:33;;;;;;;18.88;5.28;;;5.70;99.90;;;;;;5578496;24;20136;31
2024/01/23 03:42:10;;;;;;;15.70;4.13;;;5.70;88.30;;;;;;968400;24;20189;-95
2024/01/23 03:44:50;;;;;;;19.92;6.13;;;5.80;99.90;;;;;;5267027;24;20298;-96
2024/01/23 03:47:24;;;;;;;22.40;5.28;;;5.50;99.90;;;;;;4901657;24;20066;-96
2024/01/23 03:53:36;;;;;;;20.45;4.53;;;5.80;99.90;;;;;;5655286;24;20048;-92
2024/01/23 04:13:05;;;;;;;21.80;5.55;;;5.90;99.90;;;;;;5163064;24;20090;31
2024/01/23 04:16:24;;;;;;;18.05;5.35;;;6.10;99.90;;;;;;5421854;24;20072;31
2024/01/23 04:18:57;;;;;;;22.58;6.00;;;5.90;99.90;;;;;;5387716;24;20063;-96
2024/01/23 04:37:50;;;;;;;18.73;4.78;;;6.00;99.90;;;;;;1569829;24;20461;-93
2024/01/23 04:47:21;;;;;;;;;;;;;;;;;;;;;
2024/01/23 04:50:43;;;;;;;23.20;5.22;;;5.60;99.90;;;;;;4346675;24;20236;-96
2024/01/23 06:04:27;;;;;;;;;;;;;;;;;;;;;
2024/01/23 07:07:12;;;;;;;;;;;;;;;;;;;;;
2024/01/23 07:33:00;;;;;;;33.42;7.63;;;5.60;99.90;;;;;;4792094;29;20495;-96
2024/01/23 07:35:26;;;;;;;21.38;7.10;;;4.60;99.90;;;;;;4763192;30;20075;-96
2024/01/23 07:37:52;;;;;;;32.30;7.97;;;4.30;99.90;;;;;;4747276;30;20064;-96
2024/01/23 07:40:21;;;;;;;30.10;8.93;;;4.40;99.90;;;;;;4762687;30;20521;-96
2024/01/23 07:42:55;;;;;;;31.77;8.27;;;5.50;99.90;;;;;;4763183;30;20090;-96
2024/01/23 07:45:20;;;;;;;24.40;6.78;;;5.50;99.90;;;;;;4763722;30;20055;-96
2024/01/23 07:47:47;;;;;;;34.30;8.57;;;4.60;99.90;;;;;;4763196;30;20490;-96
2024/01/23 07:50:16;;;;;;;30.73;6.93;;;5.30;99.90;;;;;;4763480;30;20051;-96
2024/01/23 07:52:44;;;;;;;32.95;7.95;;;5.40;99.90;;;;;;4762524;30;20533;-96
2024/01/23 07:55:13;;;;;;;27.35;6.85;;;4.70;99.90;;;;;;4748888;30;20054;-96
2024/01/23 07:57:45;;;;;;;30.83;6.85;;;5.40;99.90;;;;;;4749796;30;20559;-96
2024/01/23 08:00:22;;;;;;;29.10;7.45;;;5.40;99.90;;;;;;4762922;30;20078;-96
2024/01/23 08:02:53;;;;;;;32.60;8.70;;;5.40;99.90;;;;;;4749703;30;20055;-96
2024/01/23 08:05:19;;;;;;;24.92;7.47;;;5.90;99.90;;;;;;4747829;30;20068;-96
2024/01/23 08:07:55;;;;;;;;;;;;;;;;;;;;;
2024/01/23 08:10:36;;;;;;;25.10;7.00;;;5.80;99.90;;;;;;4762751;30;20301;-96
2024/01/23 08:13:05;;;;;;;28.80;8.13;;;5.60;99.90;;;;;;4763702;30;20055;-96
2024/01/23 08:15:34;;;;;;;34.65;7.78;;;5.50;99.90;;;;;;4762850;30;20057;-96
2024/01/23 08:18:08;;;;;;;43.22;8.55;;;5.60;99.90;;;;;;4763979;30;20051;-96
2024/01/23 08:20:37;;;;;;;32.40;7.82;;;5.50;99.90;;;;;;4762854;30;20112;-95
2024/01/23 08:23:05;;;;;;;38.15;9.40;;;5.40;99.90;;;;;;4747355;30;20043;-96
2024/01/23 08:25:33;;;;;;;32.83;7.43;;;4.50;99.90;;;;;;4763541;30;20059;-96
2024/01/23 08:27:59;;;;;;;35.88;8.07;;;5.50;99.90;;;;;;4764591;30;20051;-96
2024/01/23 08:30:30;;;;;;;27.45;9.27;;;5.50;99.90;;;;;;4748549;30;20054;-96
2024/01/23 08:32:59;;;;;;;27.63;8.02;;;5.70;99.90;;;;;;4747376;30;20078;-96
2024/01/23 08:35:33;;;;;;;30.73;8.20;;;5.60;99.90;;;;;;4762759;30;20065;-96
2024/01/23 08:37:59;;;;;;;31.77;7.32;;;5.60;99.90;;;;;;4747794;30;20142;-96
2024/01/23 08:40:27;;;;;;;29.43;8.97;;;4.50;99.90;;;;;;4763693;30;20082;-96
2024/01/23 08:42:56;;;;;;;33.08;7.45;;;4.70;99.90;;;;;;4763596;30;20297;-96
2024/01/23 08:45:25;;;;;;;30.17;8.43;;;5.80;99.90;;;;;;4766698;30;20072;-96
2024/01/23 08:47:57;;;;;;;33.33;10.13;;;6.00;99.90;;;;;;4763177;30;20059;-96
2024/01/23 08:50:30;;;;;;;37.17;7.82;;;5.90;99.90;;;;;;4763555;30;20054;-96
2024/01/23 08:52:56;;;;;;;35.22;9.27;;;5.90;99.90;;;;;;4776561;30;20054;-96
2024/01/23 08:55:22;;;;;;;19.60;7.70;;;5.90;99.90;;;;;;4761228;30;20051;-96
2024/01/23 08:57:52;;;;;;;32.17;7.28;;;5.70;99.90;;;;;;4759557;29;20055;-96
2024/01/23 09:00:24;;;;;;;24.95;7.60;;;6.10;99.90;;;;;;4745664;30;20062;-96
2024/01/23 09:02:58;;;;;;;32.22;6.63;;;6.30;99.90;;;;;;4746158;30;20535;-96
2024/01/23 09:05:30;;;;;;;26.35;7.07;;;6.30;99.90;;;;;;4758827;30;20499;-96
2024/01/23 09:07:57;;;;;;;29.48;8.90;;;6.20;99.90;;;;;;4758553;30;20475;-96
2024/01/23 09:10:28;;;;;;;31.13;8.63;;;6.00;99.90;;;;;;4757667;30;20079;-96
2024/01/23 09:12:57;;;;;;;29.52;7.78;;;7.00;99.90;;;;;;4759078;30;20475;-96
2024/01/23 09:15:26;;;;;;;23.27;5.93;;;6.40;99.90;;;;;;4760797;30;20112;-96
2024/01/23 09:17:56;;;;;;;25.80;6.82;;;6.50;99.90;;;;;;4759810;30;20079;-96
2024/01/23 09:20:25;;;;;;;25.13;8.15;;;6.50;99.90;;;;;;4759882;30;20055;-96
2024/01/23 09:22:51;;;;;;;30.40;7.55;;;6.20;99.90;;;;;;4761997;30;20048;-96
2024/01/23 09:25:23;;;;;;;34.37;9.73;;;6.60;99.90;;;;;;4763441;30;20134;-96
2024/01/23 09:28:01;;;;;;;29.38;7.97;;;6.60;99.90;;;;;;4764169;30;20424;-96
2024/01/23 09:30:29;;;;;;;29.73;7.20;;;6.60;99.90;;;;;;4765670;30;20066;-96
2024/01/23 09:33:00;;;;;;;23.88;7.00;;;6.80;99.90;;;;;;4763629;30;20066;-96
2024/01/23 09:35:33;;;;;;;32.35;8.65;;;6.90;99.90;;;;;;4763197;30;20138;-96
2024/01/23 09:37:58;;;;;;;23.90;6.20;;;6.90;99.90;;;;;;4747529;30;20506;-96
2024/01/23 09:40:27;;;;;;;20.63;6.50;;;6.90;99.90;;;;;;4762711;30;20108;-96
2024/01/23 09:42:57;;;;;;;30.33;7.68;;;6.90;99.90;;;;;;4762203;30;20097;-96
2024/01/23 09:45:30;;;;;;;36.35;8.18;;;7.00;99.90;;;;;;4747503;30;20048;-96
2024/01/23 09:47:56;;;;;;;25.35;6.43;;;7.10;99.90;;;;;;4761649;30;20048;-96
2024/01/23 09:50:31;;;;;;;30.02;7.78;;;7.00;99.90;;;;;;4777280;30;20055;-96
2024/01/23 09:52:59;;;;;;;21.02;6.03;;;7.70;99.90;;;;;;4747328;30;20411;-96
2024/01/23 09:55:27;;;;;;;27.40;6.82;;;7.40;99.90;;;;;;4761868;30;20082;-96
2024/01/23 09:57:56;;;;;;;28.17;7.55;;;7.40;99.90;;;;;;4760927;30;20398;-96
2024/01/23 10:00:24;;;;;;;28.35;7.32;;;7.40;99.90;;;;;;4761150;30;20093;-96
2024/01/23 10:02:51;;;;;;;26.30;8.48;;;7.50;99.90;;;;;;4761242;30;20141;-96
2024/01/23 10:05:19;;;;;;;33.20;8.40;;;7.60;99.90;;;;;;4761076;30;20059;-96
2024/01/23 10:07:47;;;;;;;23.33;9.25;;;7.60;99.90;;;;;;4761525;30;20091;-96
2024/01/23 10:10:16;;;;;;;29.00;7.57;;;7.60;99.90;;;;;;4761363;30;20521;-96
2024/01/23 10:12:48;;;;;;;31.48;8.88;;;8.60;99.90;;;;;;4761174;30;20055;-96
2024/01/23 10:15:22;;;;;;;28.15;6.72;;;7.80;99.90;;;;;;4761535;30;20051;-96
2024/01/23 10:17:49;;;;;;;22.10;5.97;;;8.10;99.90;;;;;;4760192;30;20055;-96
2024/01/23 10:20:20;;;;;;;25.52;8.38;;;8.00;99.90;;;;;;4747062;30;20215;-96
2024/01/23 10:22:47;;;;;;;17.67;6.47;;;8.60;99.90;;;;;;4746356;29;20075;-96
2024/01/23 10:25:25;;;;;;;24.33;7.28;;;8.80;99.90;;;;;;4759296;30;20137;-96
2024/01/23 10:28:15;;;;;;;31.77;8.23;;;8.90;99.90;;;;;;4761274;30;20059;-96
2024/01/23 10:30:43;;;;;;;24.52;6.90;;;9.10;99.90;;;;;;4746791;30;20503;-96
2024/01/23 10:33:33;;;;;;;21.67;6.40;;;9.30;99.90;;;;;;4761211;30;20070;-96
2024/01/23 10:36:00;;;;;;;23.38;7.00;;;9.10;41.30;;;;;;4761283;30;20095;-96
2024/01/23 10:38:29;;;;;;;23.30;7.22;;;9.30;99.90;;;;;;4760638;30;20068;-96
2024/01/23 10:40:56;;;;;;;25.08;6.68;;;9.40;99.90;;;;;;4775058;30;20055;-96
2024/01/23 10:43:28;;;;;;;29.13;7.38;;;9.40;99.90;;;;;;4760435;30;20051;-96
2024/01/23 10:46:02;;;;;;;24.83;6.97;;;9.50;99.90;;;;;;4760678;30;20490;-95
2024/01/23 10:48:31;;;;;;;24.10;6.65;;;8.40;99.90;;;;;;4761234;30;20051;-96
2024/01/23 10:51:03;;;;;;;24.10;6.25;;;9.60;99.90;;;;;;4745591;30;20058;-96
2024/01/23 10:53:37;;;;;;;25.00;6.90;;;9.70;99.90;;;;;;4760987;30;20108;-96
2024/01/23 10:56:06;;;;;;;26.17;7.90;;;8.90;99.90;;;;;;4741869;30;20099;-96
2024/01/23 10:58:54;;;;;;;;;;;;;;;;;;;;;
2024/01/23 11:01:33;;;;;;;;;;;9.60;99.90;;;;;;4773949;30;20052;-96
2024/01/23 11:04:01;;;;;;;33.15;7.70;;;8.70;1.00;;;;;;4750205;30;20023;-96
2024/01/23 11:06:36;;;;;;;25.10;6.57;;;9.50;98.80;;;;;;4743695;30;20059;-96
2024/01/23 11:09:09;;;;;;;26.80;7.10;;;9.50;99.90;;;;;;4744287;30;20062;-96
2024/01/23 11:12:04;;;;;;;21.17;6.45;;;9.10;99.90;;;;;;4761391;30;20051;-96
2024/01/23 11:14:59;;;;;;;32.67;7.25;;;9.40;99.30;;;;;;4760918;30;20051;-96
2024/01/23 11:17:31;;;;;;;27.52;8.05;;;9.40;97.60;;;;;;4745523;30;20052;-96
2024/01/23 11:20:22;;;;;;;30.50;6.93;;;9.30;99.90;;;;;;4731851;30;20047;-96
2024/01/23 11:23:11;;;;;;;26.50;6.72;;;9.20;86.80;;;;;;4746398;30;20126;-96
2024/01/23 11:25:56;;;;;;;25.33;6.55;;;9.60;99.90;;;;;;4761700;30;20080;-96
2024/01/23 11:28:47;;;;;;;26.05;7.22;;;9.30;99.90;;;;;;4768483;30;20101;-96
2024/01/23 11:31:28;;;;;;;21.13;7.22;;;9.20;99.90;;;;;;4776344;30;20099;-96
2024/01/23 11:34:29;;;;;;;24.60;7.75;;;8.80;99.90;;;;;;4794332;29;20093;-96
2024/01/23 11:36:55;;;;;;;19.42;5.82;;;7.80;95.30;;;;;;4749001;30;20054;-96
2024/01/23 11:39:48;;;;;;;;;;;;;;;;;;;;;
2024/01/23 11:42:16;;;;;;;23.20;5.97;;;8.10;99.90;;;;;;4765954;30;20142;-96
2024/01/23 11:45:15;;;;;;;28.67;6.80;;;8.80;99.90;;;;;;4764218;30;20089;-96
2024/01/23 11:47:46;;;;;;;19.85;6.63;;;8.30;99.90;;;;;;4751956;30;20062;-96
2024/01/23 11:50:23;;;;;;;27.05;6.93;;;9.00;99.90;;;;;;4749347;30;20052;-96
2024/01/23 11:53:13;;;;;;;;;;;;;;;;;;;;;
2024/01/23 11:56:08;;;;;;;23.70;7.05;;;8.30;99.90;;;;;;4776722;30;20113;-96
2024/01/23 11:58:46;;;;;;;18.42;5.70;;;8.30;99.90;;;;;;4764254;30;20174;-96
2024/01/23 12:01:21;;;;;;;21.65;6.30;;;8.20;99.90;;;;;;4748843;30;20056;-96
2024/01/23 12:03:58;;;;;;;24.40;7.05;;;8.20;99.90;;;;;;4765366;30;20047;-96
2024/01/23 12:06:35;;;;;;;21.73;6.43;;;8.20;99.90;;;;;;4749814;30;20150;-96
2024/01/23 12:09:01;;;;;;;25.00;6.20;;;8.20;99.90;;;;;;4762485;30;20066;-96
2024/01/23 12:11:41;;;;;;;;;;;;;;;;;;;;;
2024/01/23 12:14:10;;;;;;;24.38;7.53;;;7.40;99.90;;;;;;4761548;30;20056;-96
2024/01/23 12:16:36;;;;;;;28.88;7.03;;;7.70;99.90;;;;;;4760824;30;20130;-96
2024/01/23 12:19:02;;;;;;;26.98;7.13;;;8.70;99.90;;;;;;4760259;30;20047;-96
2024/01/23 12:21:31;;;;;;;20.00;5.93;;;8.90;99.90;;;;;;4743464;30;20059;-96
2024/01/23 12:24:03;;;;;;;27.02;6.45;;;9.00;99.90;;;;;;4745160;30;20479;-96
2024/01/23 12:26:31;;;;;;;30.17;6.70;;;9.00;99.90;;;;;;4746266;30;20062;-96
2024/01/23 12:28:57;;;;;;;22.55;6.50;;;8.80;99.90;;;;;;4759237;30;20048;-96
2024/01/23 12:31:25;;;;;;;29.92;7.32;;;8.20;99.90;;;;;;4778771;30;20063;-96
2024/01/23 12:33:58;;;;;;;25.83;7.00;;;9.10;99.90;;;;;;4750095;30;20498;-96
2024/01/23 12:36:33;;;;;;;19.23;6.72;;;9.70;99.90;;;;;;4749280;30;20059;-96
2024/01/23 12:39:10;;;;;;;27.50;6.28;;;9.30;99.90;;;;;;4749953;30;20062;-96
2024/01/23 12:41:39;;;;;;;;;;;8.30;99.90;;;;;;4748413;30;20051;-96
2024/01/23 12:44:05;;;;;;;18.85;5.45;;;9.40;3.60;;;;;;4762601;30;20334;-96
2024/01/23 12:46:31;;;;;;;19.58;6.10;;;9.40;99.90;;;;;;4750610;30;20108;-97
2024/01/23 12:49:05;;;;;;;24.42;6.38;;;9.00;99.90;;;;;;4768652;30;20047;-96
2024/01/23 12:51:37;;;;;;;20.65;5.50;;;9.50;99.90;;;;;;4767183;30;20047;-96
2024/01/23 12:54:08;;;;;;;31.08;7.30;;;9.60;99.90;;;;;;4765607;30;20058;-96
2024/01/23 12:56:47;;;;;;;19.48;6.32;;;9.30;99.90;;;;;;4769078;30;20051;-96
2024/01/23 12:59:23;;;;;;;19.20;6.70;;;8.80;99.90;;;;;;4754737;30;20066;-96
2024/01/23 13:01:54;;;;;;;26.33;8.05;;;9.00;99.90;;;;;;4754087;30;20510;-96
2024/01/23 13:04:23;;;;;;;21.20;6.63;;;8.60;99.90;;;;;;4782654;30;20051;-96
2024/01/23 13:06:49;;;;;;;24.20;6.32;;;8.70;99.90;;;;;;4765262;30;20094;-96
2024/01/23 13:09:26;;;;;;;22.00;6.57;;;8.50;99.90;;;;;;4764672;30;20051;-96
2024/01/23 13:12:10;;;;;;;28.67;7.20;;;8.30;99.90;;;;;;4752899;30;20464;-96
2024/01/23 13:14:39;;;;;;;25.15;7.97;;;8.30;99.90;;;;;;4767131;30;20044;-96
2024/01/23 13:17:08;;;;;;;23.27;6.05;;;8.20;99.90;;;;;;4779610;30;20514;-96
2024/01/23 13:19:37;;;;;;;29.33;6.47;;;8.10;99.90;;;;;;4749358;30;20047;-96
2024/01/23 13:22:11;;;;;;;20.00;6.00;;;8.80;99.90;;;;;;4752089;30;20048;-96
2024/01/23 13:24:58;;;;;;;19.88;6.03;;;8.00;99.90;;;;;;4768563;30;20054;-96
2024/01/23 13:27:33;;;;;;;;;;;;;;;;;;;;;
2024/01/23 13:30:02;;;;;;;21.38;5.55;;;6.90;99.90;;;;;;4785702;30;20055;-96
2024/01/23 13:32:34;;;;;;;20.20;6.30;;;8.00;99.90;;;;;;4771163;30;20116;-96
2024/01/23 13:35:17;;;;;;;22.67;6.22;;;8.40;99.90;;;;;;4773134;30;20115;-96
2024/01/23 13:38:38;;;;;;;22.52;7.65;;;8.10;99.90;;;;;;4762348;30;20093;-96
2024/01/23 13:44:27;;;;;;;18.40;5.25;;;7.20;99.90;;;;;;4782825;30;20058;-96
2024/01/23 13:46:59;;;;;;;19.33;4.97;;;9.10;99.90;;;;;;4773402;30;20066;-96
2024/01/23 13:49:31;;;;;;;20.85;5.93;;;7.80;99.90;;;;;;4763696;30;20062;-97
2024/01/23 13:52:07;;;;;;;23.20;5.07;;;7.90;99.90;;;;;;4769667;30;20058;-96
2024/01/23 13:54:45;;;;;;;18.55;5.82;;;7.80;99.90;;;;;;4767621;30;20063;-96
2024/01/23 13:57:25;;;;;;;22.50;6.05;;;8.20;99.90;;;;;;4768210;30;20117;-96
2024/01/23 14:00:12;;;;;;;;;;;;;;;;;;;;;
2024/01/23 14:02:51;;;;;;;25.90;7.43;;;7.60;99.90;;;;;;4784136;30;20051;-96
2024/01/23 14:05:22;;;;;;;21.73;5.60;;;7.60;99.90;;;;;;4770268;30;20059;-96
2024/01/23 14:08:17;;;;;;;;;;;;;;;;;;;;;
2024/01/23 14:10:56;;;;;;;23.27;6.33;;;8.40;99.90;;;;;;4787714;30;20098;-96
2024/01/23 14:13:37;;;;;;;;;;;;;;;;;;;;;
2024/01/23 14:16:17;;;;;;;23.33;5.75;;;7.60;99.90;;;;;;4789421;30;20111;-96
2024/01/23 14:21:49;;;;;;;20.42;5.35;;;7.50;99.90;;;;;;4786342;30;20048;-96
2024/01/23 14:24:20;;;;;;;22.88;5.20;;;7.60;99.90;;;;;;4766850;30;20051;-96
2024/01/23 14:26:46;;;;;;;21.55;5.95;;;7.40;99.90;;;;;;4763971;30;20059;-96
2024/01/23 14:29:12;;;;;;;21.50;5.32;;;7.60;99.90;;;;;;4761785;30;20513;-96
2024/01/23 14:31:41;;;;;;;25.53;5.83;;;7.50;99.90;;;;;;4762391;30;20113;-96
2024/01/23 14:34:10;;;;;;;17.98;5.97;;;7.40;99.90;;;;;;4778116;30;20067;-96
2024/01/23 14:36:41;;;;;;;15.25;4.50;;;7.50;99.90;;;;;;4766306;30;20055;-96
2024/01/23 14:39:10;;;;;;;19.65;5.03;;;7.70;99.90;;;;;;4749682;30;20502;-96
2024/01/23 14:42:14;;;;;;;15.70;5.25;;;7.40;99.90;;;;;;4763140;30;20051;-96
2024/01/23 14:44:42;;;;;;;22.20;5.45;;;6.60;99.90;;;;;;4767270;30;20058;-96
2024/01/23 14:47:10;;;;;;;16.15;5.78;;;7.50;99.90;;;;;;4764281;30;20146;-96
2024/01/23 14:49:41;;;;;;;18.10;5.10;;;7.40;99.90;;;;;;4749903;30;20051;-96
2024/01/23 14:52:08;;;;;;;24.98;4.95;;;7.50;99.90;;;;;;4751841;30;20079;-96
2024/01/23 14:54:37;;;;;;;24.30;5.80;;;7.50;99.90;;;;;;4764988;30;20055;-96
2024/01/23 14:57:07;;;;;;;21.25;6.38;;;7.40;99.90;;;;;;4764833;30;20084;-96
2024/01/23 14:59:39;;;;;;;19.58;4.95;;;6.30;99.90;;;;;;4796565;30;20051;-96
2024/01/23 15:02:12;;;;;;;19.17;5.05;;;7.40;99.90;;;;;;4767549;30;20091;-96
2024/01/23 15:04:43;;;;;;;17.75;5.00;;;7.40;99.90;;;;;;4750547;30;20102;-96
2024/01/23 15:07:21;;;;;;;25.73;7.68;;;7.30;99.90;;;;;;4781873;30;20087;-96
2024/01/23 15:10:01;;;;;;;;;;;;;;;;;;;;;
2024/01/23 15:12:30;;;;;;;15.38;5.25;;;7.30;99.90;;;;;;4769888;30;20403;-96
2024/01/23 15:14:55;;;;;;;19.48;5.15;;;7.30;99.90;;;;;;4778817;30;20051;-96
2024/01/23 15:17:24;;;;;;;19.67;5.43;;;6.20;99.90;;;;;;4749042;30;20108;-96
2024/01/23 15:20:18;;;;;;;13.82;4.22;;;7.20;99.90;;;;;;4748481;30;20043;-96
2024/01/23 15:22:54;;;;;;;16.60;5.32;;;7.20;99.90;;;;;;4752729;30;20055;-96
2024/01/23 15:25:35;;;;;;;;;;;;;;;;;;;;;
2024/01/23 15:28:07;;;;;;;13.68;4.40;;;8.20;99.90;;;;;;4777962;30;20133;-96
2024/01/23 15:30:36;;;;;;;18.88;4.55;;;7.40;99.90;;;;;;4766519;30;20056;-96
2024/01/23 15:33:09;;;;;;;17.57;5.23;;;7.10;99.90;;;;;;4763647;30;20085;-96
2024/01/23 15:35:39;;;;;;;16.90;5.90;;;7.20;99.90;;;;;;4764533;29;20051;-96
2024/01/23 15:38:10;;;;;;;21.05;6.20;;;7.30;99.90;;;;;;4761213;30;20082;-96
2024/01/23 15:40:36;;;;;;;19.60;6.03;;;7.20;99.90;;;;;;4735927;30;20074;-96
2024/01/23 15:43:02;;;;;;;37.60;7.63;;;7.10;99.90;;;;;;4733730;30;20502;-96
2024/01/23 15:45:31;;;;;;;21.30;4.83;;;7.10;99.90;;;;;;4777023;30;20053;-96
2024/01/23 15:50:53;;;;;;;17.90;5.57;;;7.10;99.90;;;;;;5452482;24;20051;-96
2024/01/23 16:05:28;;;;;;;22.27;7.37;;;6.80;99.90;;;;;;5503270;24;20030;-96
2024/01/23 16:11:39;;;;;;;19.98;6.80;;;6.70;99.90;;;;;;5450516;24;20037;31
2024/01/23 16:17:36;;;;;;;;;;;;;;;;;;;;;
2024/01/23 16:20:26;;;;;;;26.85;9.00;;;6.50;99.90;;;;;;5051597;24;20065;-96
2024/01/23 16:32:38;;;;;;;21.75;7.50;;;6.50;99.90;;;;;;5252728;24;20048;31
2024/01/23 16:38:24;;;;;;;24.75;8.57;;;6.40;99.90;;;;;;4873246;24;20058;-96
2024/01/23 16:40:54;;;;;;;25.75;7.25;;;7.10;99.90;;;;;;4967790;24;20048;-96
2024/01/23 16:44:09;;;;;;;27.00;7.45;;;6.00;99.90;;;;;;4338547;24;20241;-96
2024/01/23 16:47:12;;;;;;;23.73;7.22;;;5.60;99.90;;;;;;5060483;24;20994;31
2024/01/23 16:50:13;;;;;;;;;;;;;;;;;;;;;
2024/01/23 16:53:18;;;;;;;19.90;7.03;;;7.10;99.90;;;;;;4759309;30;20064;-96
2024/01/23 16:55:50;;;;;;;22.80;7.60;;;5.70;99.90;;;;;;4981495;24;20117;-95
2024/01/23 16:58:26;;;;;;;27.43;7.27;;;6.50;99.90;;;;;;4750069;30;20052;-96
2024/01/23 17:01:07;;;;;;;24.65;8.05;;;6.50;99.90;;;;;;4751928;30;20051;-96
2024/01/23 17:03:49;;;;;;;37.30;8.80;;;6.10;99.90;;;;;;5017382;24;20604;-96
2024/01/23 17:06:27;;;;;;;29.38;7.93;;;7.60;99.90;;;;;;4768479;30;20055;-96
2024/01/23 17:08:59;;;;;;;37.53;12.10;;;6.50;99.90;;;;;;4774057;30;20063;-96
2024/01/23 17:11:50;;;;;;;24.50;10.57;;;6.50;99.90;;;;;;4765739;30;20039;-96
2024/01/23 17:14:25;;;;;;;34.47;10.77;;;5.90;99.90;;;;;;4758377;30;20447;-96
2024/01/23 17:22:54;;;;;;;33.40;10.23;;;6.50;99.90;;;;;;4758931;30;20059;-96
2024/01/23 17:26:08;;;;;;;31.75;10.68;;;6.10;99.90;;;;;;4740524;29;20107;-96
2024/01/23 18:59:18;;;;;;;18.63;8.95;;;6.90;99.90;;;;;;1004199;24;21639;31
2024/01/23 19:04:57;;;;;;;16.38;8.25;;;6.30;99.90;;;;;;4768337;30;20086;-96
2024/01/23 19:07:50;;;;;;;;;;;;;;;;;;;;;
2024/01/23 19:10:45;;;;;;;17.50;9.02;;;7.10;99.90;;;;;;4748788;30;20157;-96
2024/01/23 19:13:21;;;;;;;18.88;7.90;;;7.00;99.90;;;;;;4714615;30;20053;-96
2024/01/23 19:16:32;;;;;;;13.43;9.00;;;7.00;99.90;;;;;;4738503;30;20048;-96
2024/01/23 19:19:05;;;;;;;18.20;9.40;;;6.60;99.90;;;;;;4724334;30;20114;-96
2024/01/23 19:21:37;;;;;;;17.27;8.40;;;7.00;99.90;;;;;;4725329;30;20060;-96
2024/01/23 19:24:08;;;;;;;16.77;7.70;;;7.10;99.90;;;;;;4721927;30;20067;-96
2024/01/23 19:26:36;;;;;;;14.55;8.43;;;7.10;99.90;;;;;;4694291;30;20115;-96
2024/01/23 19:29:18;;;;;;;17.27;9.88;;;6.80;99.90;;;;;;4708173;30;20065;-96
2024/01/23 19:31:48;;;;;;;14.00;9.02;;;7.20;99.90;;;;;;4721467;30;20059;-96
2024/01/23 19:34:24;;;;;;;;;;;;;;;;;;;;;
2024/01/23 19:37:05;;;;;;;12.52;9.15;;;7.20;99.90;;;;;;4721511;30;20057;-96
2024/01/23 19:39:40;;;;;;;15.48;9.23;;;7.60;99.90;;;;;;4693690;30;20045;-96
2024/01/23 19:42:23;;;;;;;;;;;;;;;;;;;;;
2024/01/23 19:45:05;;;;;;;;;;;;;;;;;;;;;
2024/01/23 19:48:03;;;;;;;14.10;8.45;;;7.40;99.90;;;;;;4695089;30;20135;-95
2024/01/23 19:50:50;;;;;;;13.88;8.85;;;7.40;99.90;;;;;;4693665;30;20071;-95
2024/01/23 19:53:20;;;;;;;14.40;9.15;;;7.40;99.90;;;;;;4720865;30;20059;-95
2024/01/23 19:55:51;;;;;;;17.73;9.68;;;7.50;99.90;;;;;;4720863;30;20052;-96
2024/01/23 19:58:22;;;;;;;15.73;9.63;;;7.40;99.90;;;;;;4692038;30;20188;-94
2024/01/23 20:00:57;;;;;;;16.00;9.18;;;8.00;99.90;;;;;;4705730;30;20087;-95
2024/01/23 20:03:28;;;;;;;16.98;10.50;;;7.50;99.90;;;;;;4721577;30;20539;-95
2024/01/23 20:06:02;;;;;;;11.23;8.13;;;7.60;99.90;;;;;;4707181;30;20052;-94
2024/01/23 20:08:30;;;;;;;15.30;10.27;;;7.60;99.90;;;;;;4736305;30;20054;-95
2024/01/23 20:11:02;;;;;;;19.48;10.45;;;7.60;99.90;;;;;;4738102;30;20113;-93
2024/01/23 20:13:39;;;;;;;16.25;10.05;;;7.60;99.90;;;;;;4738415;30;20060;-94
2024/01/23 20:16:18;;;;;;;;;;;;;;;;;;;;;
2024/01/23 20:19:34;;;;;;;;;;;;;;;;;;;;;
2024/01/23 20:22:10;;;;;;;17.08;9.80;;;7.80;99.90;;;;;;4740332;30;20557;-94
2024/01/23 20:24:39;;;;;;;12.93;9.68;;;7.10;99.90;;;;;;4723812;30;20438;-94
2024/01/23 20:27:12;;;;;;;13.38;10.52;;;7.90;99.90;;;;;;4737981;30;20064;-94
2024/01/23 20:29:38;;;;;;;16.55;9.25;;;8.00;99.90;;;;;;4739078;30;20063;-93
2024/01/23 20:32:14;;;;;;;13.80;9.17;;;7.90;99.90;;;;;;4738764;30;20055;-94
2024/01/23 20:39:09;;;;;;;13.13;9.02;;;7.90;99.90;;;;;;4753279;30;20085;-93
